Time;durP1;ratioP1;P1;durP2;ratioP2;P2;SDS_P1;SDS_P2;PMS_P1;PMS_P2;Temp;Humidity;BMP_temperature;BMP_pressure;BME280_temperature;BME280_humidity;BME280_pressure;Samples;Min_cycle;Max_cycle;Signal;HPM_P1;HPM_P2
2022/09/07 00:00:52;;;;;;;4.82;4.43;;;;;;;;;;5001254;28;20219;-73
2022/09/07 00:03:18;;;;;;;8.20;4.47;;;;;;;;;;5013564;28;20261;-73
2022/09/07 00:05:46;;;;;;;5.22;4.47;;;;;;;;;;5027667;28;20223;-74
2022/09/07 00:08:12;;;;;;;5.65;4.28;;;;;;;;;;4999618;28;20646;-74
2022/09/07 00:10:43;;;;;;;4.72;4.32;;;;;;;;;;5014696;28;20216;-73
2022/09/07 00:13:10;;;;;;;4.82;4.40;;;;;;;;;;5017209;28;20215;-73
2022/09/07 00:15:39;;;;;;;5.00;4.45;;;;;;;;;;5011217;28;20599;-73
2022/09/07 00:18:10;;;;;;;4.88;4.50;;;;;;;;;;5016517;28;20238;-73
2022/09/07 00:20:35;;;;;;;4.93;4.50;;;;;;;;;;5038752;28;20240;-74
2022/09/07 00:23:01;;;;;;;5.10;4.50;;;;;;;;;;5004129;28;20235;-73
2022/09/07 00:25:31;;;;;;;5.43;4.35;;;;;;;;;;5017282;28;20714;-74
2022/09/07 00:27:56;;;;;;;5.38;4.88;;;;;;;;;;5001803;28;20649;-73
2022/09/07 00:30:24;;;;;;;4.93;4.50;;;;;;;;;;5021020;28;20222;-72
2022/09/07 00:32:52;;;;;;;5.05;4.57;;;;;;;;;;5023981;28;20304;-73
2022/09/07 00:35:22;;;;;;;5.53;4.45;;;;;;;;;;5013600;28;20230;-72
2022/09/07 00:37:50;;;;;;;6.63;4.68;;;;;;;;;;5002588;28;20622;-73
2022/09/07 00:40:15;;;;;;;5.45;4.57;;;;;;;;;;4997496;28;20223;-72
2022/09/07 00:42:41;;;;;;;5.10;4.60;;;;;;;;;;4969889;28;20224;-74
2022/09/07 00:45:11;;;;;;;4.55;4.15;;;;;;;;;;4993120;28;20227;-74
2022/09/07 00:47:46;;;;;;;5.50;4.88;;;;;;;;;;5001315;28;20224;-73
2022/09/07 00:50:47;;;;;;;7.68;4.60;;;;;;;;;;5030568;28;20250;-74
2022/09/07 00:53:19;;;;;;;6.10;4.82;;;;;;;;;;5006462;28;20272;-73
2022/09/07 00:55:47;;;;;;;4.78;4.18;;;;;;;;;;5007873;28;20310;-73
2022/09/07 00:58:13;;;;;;;5.78;4.93;;;;;;;;;;4997968;28;20405;-72
2022/09/07 01:00:39;;;;;;;5.07;4.57;;;;;;;;;;5005175;28;20666;-73
2022/09/07 01:03:05;;;;;;;5.07;4.57;;;;;;;;;;4972412;28;20288;-73
2022/09/07 01:05:48;;;;;;;6.25;4.75;;;;;;;;;;5044456;28;20227;-73
2022/09/07 01:08:18;;;;;;;7.10;4.90;;;;;;;;;;5013713;28;20235;-73
2022/09/07 01:10:46;;;;;;;5.57;5.18;;;;;;;;;;5012441;28;20230;-72
2022/09/07 01:13:14;;;;;;;6.03;4.60;;;;;;;;;;5043753;28;20219;-73
2022/09/07 01:15:42;;;;;;;5.63;5.05;;;;;;;;;;4990277;28;20239;-73
2022/09/07 01:18:19;;;;;;;6.40;4.78;;;;;;;;;;5030776;28;20315;-73
2022/09/07 01:20:49;;;;;;;4.97;4.57;;;;;;;;;;5045783;28;20731;-73
2022/09/07 01:23:51;;;;;;;6.20;4.78;;;;;;;;;;5008024;28;20747;-73
2022/09/07 01:26:29;;;;;;;10.20;4.60;;;;;;;;;;5013966;28;20682;-73
2022/09/07 01:29:01;;;;;;;4.63;4.30;;;;;;;;;;5025262;28;20235;-73
2022/09/07 01:31:39;;;;;;;4.95;4.55;;;;;;;;;;5004203;28;20931;-73
2022/09/07 01:34:21;;;;;;;5.50;5.00;;;;;;;;;;5012370;28;20258;-74
2022/09/07 01:37:25;;;;;;;5.05;4.65;;;;;;;;;;5037484;28;20262;-73
2022/09/07 01:40:05;;;;;;;5.95;4.80;;;;;;;;;;5009313;28;20298;-73
2022/09/07 01:42:33;;;;;;;6.65;4.88;;;;;;;;;;4998956;28;20258;-74
2022/09/07 01:45:02;;;;;;;5.00;4.60;;;;;;;;;;4990936;28;20243;-73
2022/09/07 01:47:51;;;;;;;5.28;4.85;;;;;;;;;;4995853;28;20226;-72
2022/09/07 01:50:28;;;;;;;4.97;4.53;;;;;;;;;;5004847;28;20226;-72
2022/09/07 01:53:14;;;;;;;5.55;5.03;;;;;;;;;;5018563;28;20715;-73
2022/09/07 01:55:46;;;;;;;5.53;5.07;;;;;;;;;;5021200;28;20256;-73
2022/09/07 01:58:16;;;;;;;5.13;4.72;;;;;;;;;;4998895;28;20239;-73
2022/09/07 02:00:45;;;;;;;5.93;4.55;;;;;;;;;;5018508;28;20227;-73
2022/09/07 02:03:17;;;;;;;7.18;4.60;;;;;;;;;;5014666;28;20299;-72
2022/09/07 02:05:52;;;;;;;5.47;5.07;;;;;;;;;;5010438;28;20226;-72
2022/09/07 02:08:35;;;;;;;5.10;4.70;;;;;;;;;;4993908;28;20266;-73
2022/09/07 02:11:09;;;;;;;6.15;4.70;;;;;;;;;;5014953;28;20719;-73
2022/09/07 02:13:47;;;;;;;4.90;4.50;;;;;;;;;;5009875;28;20292;-73
2022/09/07 02:16:20;;;;;;;9.13;5.05;;;;;;;;;;4980224;28;20231;-73
2022/09/07 02:18:51;;;;;;;5.63;5.13;;;;;;;;;;5014300;28;20220;-71
2022/09/07 02:21:18;;;;;;;5.32;4.93;;;;;;;;;;4987017;28;20227;-71
2022/09/07 02:23:46;;;;;;;5.82;5.15;;;;;;;;;;4992042;28;20869;-72
2022/09/07 02:26:21;;;;;;;5.18;4.60;;;;;;;;;;5009731;28;20250;-72
2022/09/07 02:28:51;;;;;;;5.95;4.78;;;;;;;;;;4994035;28;20211;-72
2022/09/07 02:31:16;;;;;;;5.53;4.95;;;;;;;;;;4998726;28;20220;-73
2022/09/07 02:33:44;;;;;;;5.30;4.80;;;;;;;;;;5002409;28;20690;-73
2022/09/07 02:36:11;;;;;;;10.70;5.15;;;;;;;;;;5009414;28;20220;-72
2022/09/07 02:38:39;;;;;;;5.70;5.18;;;;;;;;;;5014099;28;20756;-72
2022/09/07 02:41:05;;;;;;;5.28;4.80;;;;;;;;;;5020252;28;20273;-72
2022/09/07 02:43:35;;;;;;;5.47;5.03;;;;;;;;;;5006137;28;20243;-73
2022/09/07 02:46:19;;;;;;;5.60;5.15;;;;;;;;;;5002124;28;20314;-72
2022/09/07 02:49:10;;;;;;;4.97;4.68;;;;;;;;;;5041062;28;20228;-74
2022/09/07 02:51:50;;;;;;;5.57;4.72;;;;;;;;;;5015133;28;20228;-74
2022/09/07 02:54:33;;;;;;;5.65;5.07;;;;;;;;;;5033238;28;20246;-73
2022/09/07 02:57:30;;;;;;;5.47;5.07;;;;;;;;;;5035702;28;20488;-74
2022/09/07 03:00:10;;;;;;;6.28;4.85;;;;;;;;;;4996827;28;20232;-73
2022/09/07 03:02:43;;;;;;;6.18;5.55;;;;;;;;;;5004248;28;20714;-73
2022/09/07 03:05:49;;;;;;;5.88;5.38;;;;;;;;;;5021384;28;20242;-73
2022/09/07 03:08:22;;;;;;;6.47;5.40;;;;;;;;;;5034214;28;21183;-73
2022/09/07 03:10:48;;;;;;;6.03;5.53;;;;;;;;;;4994957;28;20231;-72
2022/09/07 03:13:40;;;;;;;5.57;5.03;;;;;;;;;;5035957;28;20272;-72
2022/09/07 03:16:05;;;;;;;5.63;5.22;;;;;;;;;;5017113;28;20228;-73
2022/09/07 03:18:31;;;;;;;7.03;5.90;;;;;;;;;;5017846;28;20689;-73
2022/09/07 03:21:00;;;;;;;6.10;5.60;;;;;;;;;;5003868;28;20208;-72
2022/09/07 03:23:26;;;;;;;5.68;5.18;;;;;;;;;;5002427;28;20218;-72
2022/09/07 03:25:54;;;;;;;9.98;5.80;;;;;;;;;;5037959;28;20727;-72
2022/09/07 03:28:19;;;;;;;5.63;5.00;;;;;;;;;;5020626;28;20643;-73
2022/09/07 03:30:52;;;;;;;5.95;5.45;;;;;;;;;;5002590;28;20224;-73
2022/09/07 03:33:20;;;;;;;6.25;5.75;;;;;;;;;;5036378;28;20216;-72
2022/09/07 03:35:46;;;;;;;6.07;5.50;;;;;;;;;;5035075;28;20216;-73
2022/09/07 03:38:16;;;;;;;6.53;6.03;;;;;;;;;;5001825;28;20315;-73
2022/09/07 03:40:41;;;;;;;6.47;5.70;;;;;;;;;;5034910;28;20739;-73
2022/09/07 03:43:07;;;;;;;8.35;5.28;;;;;;;;;;5008608;28;20231;-72
2022/09/07 03:45:36;;;;;;;7.50;5.55;;;;;;;;;;5030610;28;20232;-73
2022/09/07 03:48:02;;;;;;;7.10;5.55;;;;;;;;;;4987532;28;20596;-73
2022/09/07 03:50:32;;;;;;;6.80;5.78;;;;;;;;;;5033898;28;20242;-72
2022/09/07 03:52:59;;;;;;;5.70;5.28;;;;;;;;;;5016654;28;20235;-72
2022/09/07 03:55:25;;;;;;;6.15;5.57;;;;;;;;;;5028983;28;20220;-71
2022/09/07 03:57:53;;;;;;;5.60;5.18;;;;;;;;;;5016987;28;20887;-72
2022/09/07 04:00:18;;;;;;;5.75;5.20;;;;;;;;;;5019902;28;20584;-71
2022/09/07 04:02:46;;;;;;;6.05;5.55;;;;;;;;;;5034850;28;20236;-72
2022/09/07 04:05:12;;;;;;;5.43;5.03;;;;;;;;;;5038139;28;20822;-72
2022/09/07 04:07:40;;;;;;;10.07;5.72;;;;;;;;;;5018261;28;20235;-73
2022/09/07 04:10:08;;;;;;;6.18;5.63;;;;;;;;;;5024178;28;20715;-73
2022/09/07 04:12:34;;;;;;;5.85;5.25;;;;;;;;;;5017148;28;20231;-73
2022/09/07 04:14:59;;;;;;;6.30;5.70;;;;;;;;;;5009005;28;20231;-73
2022/09/07 04:17:28;;;;;;;5.78;5.28;;;;;;;;;;5019669;28;20228;-73
2022/09/07 04:19:55;;;;;;;5.95;5.30;;;;;;;;;;5017867;28;20223;-73
2022/09/07 04:22:23;;;;;;;6.40;5.80;;;;;;;;;;5027149;28;20219;-73
2022/09/07 04:24:49;;;;;;;6.30;5.80;;;;;;;;;;4997923;28;20290;-72
2022/09/07 04:27:14;;;;;;;6.82;6.22;;;;;;;;;;5014900;28;20228;-74
2022/09/07 04:29:42;;;;;;;6.78;6.10;;;;;;;;;;5015217;28;20289;-74
2022/09/07 04:32:10;;;;;;;6.93;6.32;;;;;;;;;;5030183;28;20227;-74
2022/09/07 04:34:36;;;;;;;7.03;6.43;;;;;;;;;;5003493;28;20346;-73
2022/09/07 04:37:02;;;;;;;8.40;5.57;;;;;;;;;;4980009;28;20270;-71
2022/09/07 04:39:29;;;;;;;6.38;5.80;;;;;;;;;;5023801;28;20250;-74
2022/09/07 04:41:55;;;;;;;7.35;6.65;;;;;;;;;;5010202;28;20227;-74
2022/09/07 04:44:21;;;;;;;6.05;5.53;;;;;;;;;;5002889;28;20250;-72
2022/09/07 04:46:46;;;;;;;6.07;5.57;;;;;;;;;;5008715;28;20224;-71
2022/09/07 04:49:12;;;;;;;6.18;5.68;;;;;;;;;;5005470;28;20242;-71
2022/09/07 04:51:43;;;;;;;6.38;5.78;;;;;;;;;;5015494;28;20239;-72
2022/09/07 04:54:09;;;;;;;6.80;6.20;;;;;;;;;;5035323;28;20222;-72
2022/09/07 04:56:34;;;;;;;6.75;6.15;;;;;;;;;;4996906;28;20216;-72
2022/09/07 04:59:00;;;;;;;7.25;6.07;;;;;;;;;;5006190;28;20728;-71
2022/09/07 05:01:28;;;;;;;6.88;6.15;;;;;;;;;;5031490;28;20993;-73
2022/09/07 05:03:53;;;;;;;7.07;6.47;;;;;;;;;;4996959;28;20220;-73
2022/09/07 05:06:19;;;;;;;8.73;6.20;;;;;;;;;;5008154;28;20292;-71
2022/09/07 05:08:47;;;;;;;8.77;6.10;;;;;;;;;;5029481;28;20223;-72
2022/09/07 05:11:13;;;;;;;7.32;6.15;;;;;;;;;;5017014;28;20223;-73
2022/09/07 05:13:38;;;;;;;6.68;6.10;;;;;;;;;;5003841;28;20586;-72
2022/09/07 05:16:10;;;;;;;7.80;7.20;;;;;;;;;;4992236;28;20222;-72
2022/09/07 05:18:38;;;;;;;7.32;6.68;;;;;;;;;;5021968;28;20224;-72
2022/09/07 05:21:26;;;;;;;7.55;6.70;;;;;;;;;;4999106;28;20724;-71
2022/09/07 05:23:56;;;;;;;8.75;7.32;;;;;;;;;;5005363;28;20309;-73
2022/09/07 05:26:22;;;;;;;8.68;6.97;;;;;;;;;;5033982;28;20227;-73
2022/09/07 05:28:51;;;;;;;10.27;8.10;;;;;;;;;;5021655;28;20289;-72
2022/09/07 05:31:44;;;;;;;9.77;8.45;;;;;;;;;;5026675;28;20243;-73
2022/09/07 05:34:15;;;;;;;9.13;8.32;;;;;;;;;;4981838;28;20227;-74
2022/09/07 05:36:40;;;;;;;12.75;9.32;;;;;;;;;;5024497;28;20255;-73
2022/09/07 05:39:06;;;;;;;11.95;10.75;;;;;;;;;;5039123;28;20634;-73
2022/09/07 05:41:31;;;;;;;11.35;10.23;;;;;;;;;;4991728;28;20223;-74
2022/09/07 05:44:12;;;;;;;12.85;11.52;;;;;;;;;;5019705;28;20224;-72
2022/09/07 05:46:39;;;;;;;14.85;12.15;;;;;;;;;;5003472;28;20303;-73
2022/09/07 05:49:07;;;;;;;13.02;11.93;;;;;;;;;;5031185;28;20227;-73
2022/09/07 05:51:32;;;;;;;14.45;13.23;;;;;;;;;;5017283;28;20224;-73
2022/09/07 05:54:03;;;;;;;14.30;13.07;;;;;;;;;;5011151;28;20216;-72
2022/09/07 05:56:28;;;;;;;15.50;14.07;;;;;;;;;;5012044;28;20228;-72
2022/09/07 05:58:59;;;;;;;15.25;13.90;;;;;;;;;;5009216;28;20279;-73
2022/09/07 06:01:24;;;;;;;16.02;14.63;;;;;;;;;;5016889;28;20234;-72
2022/09/07 06:03:50;;;;;;;16.85;15.25;;;;;;;;;;4995977;28;20212;-73
2022/09/07 06:06:17;;;;;;;16.00;14.80;;;;;;;;;;5005438;28;20222;-73
2022/09/07 06:08:51;;;;;;;18.95;17.38;;;;;;;;;;5005077;28;20224;-73
2022/09/07 06:11:20;;;;;;;17.67;16.38;;;;;;;;;;5009122;28;20289;-72
2022/09/07 06:13:46;;;;;;;18.33;16.83;;;;;;;;;;4981963;28;20251;-71
2022/09/07 06:16:12;;;;;;;18.90;17.17;;;;;;;;;;4996117;28;20246;-73
2022/09/07 06:18:40;;;;;;;18.50;16.80;;;;;;;;;;4986680;28;20729;-74
2022/09/07 06:21:21;;;;;;;18.67;17.17;;;;;;;;;;4991590;28;20286;-71
2022/09/07 06:23:58;;;;;;;18.73;17.13;;;;;;;;;;4990393;28;20222;-73
2022/09/07 06:26:23;;;;;;;18.33;16.73;;;;;;;;;;5007375;28;20273;-72
2022/09/07 06:28:49;;;;;;;20.90;18.80;;;;;;;;;;5019724;28;20232;-72
2022/09/07 06:31:16;;;;;;;19.80;18.20;;;;;;;;;;4969183;28;20591;-73
2022/09/07 06:33:43;;;;;;;20.63;18.85;;;;;;;;;;4987797;28;20224;-72
2022/09/07 06:36:14;;;;;;;22.23;19.38;;;;;;;;;;5000847;28;20223;-72
2022/09/07 06:38:40;;;;;;;20.75;19.13;;;;;;;;;;5017956;28;20228;-72
2022/09/07 06:41:10;;;;;;;21.73;19.83;;;;;;;;;;5002887;28;20226;-74
2022/09/07 06:43:39;;;;;;;22.05;20.25;;;;;;;;;;4989552;28;21034;-72
2022/09/07 06:46:07;;;;;;;22.38;20.60;;;;;;;;;;4970995;28;20568;-73
2022/09/07 06:48:33;;;;;;;21.90;20.10;;;;;;;;;;5010409;28;20867;-73
2022/09/07 06:51:06;;;;;;;21.10;19.48;;;;;;;;;;5008125;28;20223;-73
2022/09/07 06:53:33;;;;;;;23.65;21.63;;;;;;;;;;4988727;28;20307;-73
2022/09/07 06:55:59;;;;;;;20.90;19.30;;;;;;;;;;5021090;28;20234;-72
2022/09/07 06:58:27;;;;;;;23.55;21.45;;;;;;;;;;5002640;28;20227;-73
2022/09/07 07:00:54;;;;;;;23.73;21.77;;;;;;;;;;4994873;28;20232;-73
2022/09/07 07:03:21;;;;;;;23.33;21.52;;;;;;;;;;5002981;28;20323;-72
2022/09/07 07:05:54;;;;;;;24.20;22.25;;;;;;;;;;5003509;28;20231;-72
2022/09/07 07:08:21;;;;;;;25.08;23.08;;;;;;;;;;4996004;28;20234;-72
2022/09/07 07:10:49;;;;;;;24.83;22.80;;;;;;;;;;5021987;28;20223;-72
2022/09/07 07:13:17;;;;;;;24.70;22.40;;;;;;;;;;5002833;28;20220;-72
2022/09/07 07:15:43;;;;;;;25.65;23.35;;;;;;;;;;4995876;28;20767;-73
2022/09/07 07:18:11;;;;;;;26.45;24.13;;;;;;;;;;5006675;28;20234;-73
2022/09/07 07:20:38;;;;;;;25.73;23.63;;;;;;;;;;5018211;28;20231;-73
2022/09/07 07:23:07;;;;;;;25.23;23.13;;;;;;;;;;4975802;28;20230;-72
2022/09/07 07:25:35;;;;;;;26.55;24.40;;;;;;;;;;4986087;28;20227;-74
2022/09/07 07:28:04;;;;;;;26.60;24.30;;;;;;;;;;4968784;28;20238;-74
2022/09/07 07:30:32;;;;;;;26.27;23.92;;;;;;;;;;5017346;28;20227;-73
2022/09/07 07:32:59;;;;;;;26.63;24.60;;;;;;;;;;5010793;28;20230;-73
2022/09/07 07:35:25;;;;;;;26.10;24.00;;;;;;;;;;5003576;28;20211;-74
2022/09/07 07:37:52;;;;;;;26.65;24.40;;;;;;;;;;5016835;28;20702;-73
2022/09/07 07:40:17;;;;;;;25.52;23.50;;;;;;;;;;4994686;28;20220;-73
2022/09/07 07:42:45;;;;;;;25.95;23.92;;;;;;;;;;4990399;28;20220;-73
2022/09/07 07:45:17;;;;;;;26.38;23.75;;;;;;;;;;5001021;28;20231;-73
2022/09/07 07:47:48;;;;;;;23.67;21.95;;;;;;;;;;5017359;28;20893;-74
2022/09/07 07:50:16;;;;;;;26.25;24.17;;;;;;;;;;4999870;28;20616;-71
2022/09/07 07:52:41;;;;;;;27.30;25.15;;;;;;;;;;5001856;28;20631;-72
2022/09/07 07:55:07;;;;;;;25.50;23.38;;;;;;;;;;5005322;28;20228;-72
2022/09/07 07:57:35;;;;;;;24.30;22.23;;;;;;;;;;5004173;28;20224;-72
2022/09/07 08:00:01;;;;;;;22.27;20.02;;;;;;;;;;5025823;28;20231;-72
2022/09/07 08:02:39;;;;;;;20.33;18.60;;;;;;;;;;5001050;28;20230;-72
2022/09/07 08:05:07;;;;;;;18.95;17.35;;;;;;;;;;5001950;28;20236;-71
2022/09/07 08:07:33;;;;;;;19.65;17.95;;;;;;;;;;5004610;28;20247;-71
2022/09/07 08:09:59;;;;;;;19.20;17.40;;;;;;;;;;5014666;28;20258;-72
2022/09/07 08:12:25;;;;;;;19.33;17.77;;;;;;;;;;4992304;28;20282;-72
2022/09/07 08:14:52;;;;;;;20.00;18.35;;;;;;;;;;5019354;28;20306;-72
2022/09/07 08:17:18;;;;;;;18.63;16.90;;;;;;;;;;5002618;28;20273;-72
2022/09/07 08:19:44;;;;;;;18.48;16.80;;;;;;;;;;5019753;28;20227;-74
2022/09/07 08:22:12;;;;;;;17.65;16.15;;;;;;;;;;5005047;28;20220;-73
2022/09/07 08:24:38;;;;;;;17.25;15.85;;;;;;;;;;5000863;28;20277;-72
2022/09/07 08:27:04;;;;;;;16.23;14.82;;;;;;;;;;5008840;28;20231;-72
2022/09/07 08:29:30;;;;;;;15.80;14.50;;;;;;;;;;4987980;28;20231;-72
2022/09/07 08:31:58;;;;;;;14.65;13.25;;;;;;;;;;5020000;28;20234;-72
2022/09/07 08:34:24;;;;;;;14.25;12.95;;;;;;;;;;5016852;28;20644;-72
2022/09/07 08:36:49;;;;;;;13.35;12.15;;;;;;;;;;5005011;28;20230;-73
2022/09/07 08:39:15;;;;;;;13.30;12.23;;;;;;;;;;4995951;28;20235;-72
2022/09/07 08:41:54;;;;;;;13.75;12.65;;;;;;;;;;5024507;28;20219;-72
2022/09/07 08:44:41;;;;;;;14.48;13.18;;;;;;;;;;5007029;28;20236;-73
2022/09/07 08:47:22;;;;;;;13.77;12.63;;;;;;;;;;5021173;28;20254;-72
2022/09/07 08:49:57;;;;;;;12.82;11.82;;;;;;;;;;5020218;28;20363;-73
2022/09/07 08:52:57;;;;;;;14.02;12.88;;;;;;;;;;4994669;28;20219;-72
2022/09/07 08:55:28;;;;;;;13.38;12.30;;;;;;;;;;5017791;28;20227;-72
2022/09/07 08:58:15;;;;;;;13.90;12.80;;;;;;;;;;4988741;28;20262;-73
2022/09/07 09:00:43;;;;;;;14.57;12.48;;;;;;;;;;4988899;28;20234;-73
2022/09/07 09:03:27;;;;;;;13.52;12.43;;;;;;;;;;5011412;28;20215;-73
2022/09/07 09:06:11;;;;;;;13.38;12.27;;;;;;;;;;4994046;28;20643;-72
2022/09/07 09:09:04;;;;;;;13.05;12.07;;;;;;;;;;5010635;28;20227;-72
2022/09/07 09:11:58;;;;;;;13.23;12.23;;;;;;;;;;5002662;28;20230;-72
2022/09/07 09:14:51;;;;;;;13.20;12.02;;;;;;;;;;5020288;28;20219;-71
2022/09/07 09:17:54;;;;;;;12.80;11.80;;;;;;;;;;5007746;28;20235;-72
2022/09/07 09:20:49;;;;;;;13.00;11.50;;;;;;;;;;5014877;28;20247;-73
2022/09/07 09:23:18;;;;;;;12.32;11.23;;;;;;;;;;5013633;28;20228;-73
2022/09/07 09:25:54;;;;;;;12.52;11.45;;;;;;;;;;5003026;28;20236;-72
2022/09/07 09:28:20;;;;;;;14.00;12.90;;;;;;;;;;5018531;28;20250;-72
2022/09/07 09:30:46;;;;;;;13.73;12.60;;;;;;;;;;4995205;28;20254;-71
2022/09/07 09:33:16;;;;;;;14.88;13.60;;;;;;;;;;4989533;28;20302;-72
2022/09/07 09:35:42;;;;;;;14.93;13.68;;;;;;;;;;5025700;28;20216;-72
2022/09/07 09:38:33;;;;;;;13.60;12.50;;;;;;;;;;4987210;28;20233;-72
2022/09/07 09:41:10;;;;;;;14.48;13.27;;;;;;;;;;5035029;28;20326;-72
2022/09/07 09:43:42;;;;;;;14.48;13.10;;;;;;;;;;5003511;28;20718;-72
2022/09/07 09:46:31;;;;;;;14.00;12.75;;;;;;;;;;5002829;28;20243;-73
2022/09/07 09:49:00;;;;;;;14.35;13.25;;;;;;;;;;5006132;28;20904;-72
2022/09/07 09:51:31;;;;;;;13.85;12.85;;;;;;;;;;4979867;28;20235;-73
2022/09/07 09:54:18;;;;;;;13.80;12.60;;;;;;;;;;5004754;28;20231;-73
2022/09/07 09:56:47;;;;;;;13.85;12.65;;;;;;;;;;4985937;28;20237;-72
2022/09/07 09:59:17;;;;;;;13.05;11.95;;;;;;;;;;5016733;28;20829;-73
2022/09/07 10:01:44;;;;;;;12.80;11.75;;;;;;;;;;5031143;28;20223;-72
2022/09/07 10:04:33;;;;;;;12.80;11.80;;;;;;;;;;4987395;28;20223;-73
2022/09/07 10:07:07;;;;;;;12.82;11.82;;;;;;;;;;4984582;28;20232;-72
2022/09/07 10:09:42;;;;;;;12.68;11.57;;;;;;;;;;5000025;28;20243;-73
2022/09/07 10:12:20;;;;;;;12.82;11.73;;;;;;;;;;4993719;28;20251;-72
2022/09/07 10:14:46;;;;;;;12.85;11.68;;;;;;;;;;5004490;28;20246;-72
2022/09/07 10:17:31;;;;;;;13.50;12.30;;;;;;;;;;4986734;28;20232;-72
2022/09/07 10:20:22;;;;;;;12.25;11.20;;;;;;;;;;4990013;28;20224;-73
2022/09/07 10:22:51;;;;;;;12.18;11.07;;;;;;;;;;5008178;28;20281;-72
2022/09/07 10:25:35;;;;;;;12.20;11.05;;;;;;;;;;5017959;28;20238;-72
2022/09/07 10:28:03;;;;;;;12.52;11.50;;;;;;;;;;5016728;28;20226;-72
2022/09/07 10:30:50;;;;;;;10.77;9.88;;;;;;;;;;5009052;28;20852;-73
2022/09/07 10:33:19;;;;;;;11.38;10.38;;;;;;;;;;5034209;28;20224;-73
2022/09/07 10:35:57;;;;;;;13.13;10.93;;;;;;;;;;5006800;28;20255;-73
2022/09/07 10:38:24;;;;;;;11.80;10.70;;;;;;;;;;5003608;28;20227;-72
2022/09/07 10:41:04;;;;;;;12.80;11.70;;;;;;;;;;5019499;28;20247;-73
2022/09/07 10:43:47;;;;;;;11.57;10.68;;;;;;;;;;4992679;28;20222;-74
2022/09/07 10:46:27;;;;;;;12.63;11.52;;;;;;;;;;4993584;28;20239;-72
2022/09/07 10:48:56;;;;;;;11.50;10.57;;;;;;;;;;5022309;28;20215;-72
2022/09/07 10:51:44;;;;;;;11.95;10.88;;;;;;;;;;4984333;28;20303;-72
2022/09/07 10:54:35;;;;;;;11.77;10.88;;;;;;;;;;5041784;28;20223;-71
2022/09/07 10:57:38;;;;;;;12.23;11.20;;;;;;;;;;5002387;28;20288;-72
2022/09/07 11:00:14;;;;;;;11.60;10.50;;;;;;;;;;5001425;28;20224;-72
2022/09/07 11:03:05;;;;;;;10.18;9.27;;;;;;;;;;4990198;28;20223;-72
2022/09/07 11:06:11;;;;;;;9.35;8.60;;;;;;;;;;5005288;28;20706;-71
2022/09/07 11:08:57;;;;;;;9.43;8.63;;;;;;;;;;5033710;28;20234;-72
2022/09/07 11:11:38;;;;;;;9.82;9.05;;;;;;;;;;4988135;28;20227;-72
2022/09/07 11:14:07;;;;;;;10.13;9.20;;;;;;;;;;5025365;28;20302;-72
2022/09/07 11:16:36;;;;;;;8.88;8.07;;;;;;;;;;4977181;28;20235;-71
2022/09/07 11:19:37;;;;;;;9.45;8.65;;;;;;;;;;5002816;28;20599;-72
2022/09/07 11:22:20;;;;;;;9.80;8.80;;;;;;;;;;4956570;28;20259;-71
2022/09/07 11:24:52;;;;;;;8.88;8.07;;;;;;;;;;5003114;28;20282;-74
2022/09/07 11:27:22;;;;;;;8.35;7.72;;;;;;;;;;4992905;28;20301;-72
2022/09/07 11:29:53;;;;;;;9.00;8.30;;;;;;;;;;5019429;28;20235;-72
2022/09/07 11:32:34;;;;;;;8.63;7.82;;;;;;;;;;5009603;28;20298;-72
2022/09/07 11:35:02;;;;;;;9.40;8.60;;;;;;;;;;5005948;28;20235;-71
2022/09/07 11:37:40;;;;;;;8.68;8.05;;;;;;;;;;5002755;28;20610;-72
2022/09/07 11:40:26;;;;;;;8.63;7.82;;;;;;;;;;5014644;28;20239;-71
2022/09/07 11:43:01;;;;;;;8.07;7.38;;;;;;;;;;5006035;28;20223;-73
2022/09/07 11:45:31;;;;;;;7.82;7.00;;;;;;;;;;4992825;28;20234;-72
2022/09/07 11:48:01;;;;;;;8.57;7.72;;;;;;;;;;5003660;28;20251;-72
2022/09/07 11:50:31;;;;;;;7.80;7.20;;;;;;;;;;5009725;28;20290;-72
2022/09/07 11:53:04;;;;;;;8.07;7.47;;;;;;;;;;5008769;28;20216;-73
2022/09/07 11:55:37;;;;;;;8.73;7.95;;;;;;;;;;5037382;28;20227;-73
2022/09/07 11:58:21;;;;;;;7.97;7.28;;;;;;;;;;5003808;28;20255;-72
2022/09/07 12:00:55;;;;;;;8.27;7.65;;;;;;;;;;5022218;28;20747;-72
2022/09/07 12:03:55;;;;;;;8.02;7.43;;;;;;;;;;5029034;28;20305;-72
2022/09/07 12:06:28;;;;;;;8.25;7.55;;;;;;;;;;5023786;28;20297;-73
2022/09/07 12:09:32;;;;;;;7.85;7.25;;;;;;;;;;5032414;28;20227;-72
2022/09/07 12:12:10;;;;;;;7.70;7.10;;;;;;;;;;5033213;28;20251;-72
2022/09/07 12:15:09;;;;;;;8.18;7.47;;;;;;;;;;5016748;28;20278;-73
2022/09/07 12:17:47;;;;;;;8.63;7.93;;;;;;;;;;5017291;28;20278;-72
2022/09/07 12:20:17;;;;;;;9.15;8.45;;;;;;;;;;5034128;28;20251;-73
2022/09/07 12:23:07;;;;;;;8.48;7.78;;;;;;;;;;5024300;28;20223;-73
2022/09/07 12:25:33;;;;;;;7.95;7.25;;;;;;;;;;5027412;28;20277;-73
2022/09/07 12:28:01;;;;;;;7.20;6.60;;;;;;;;;;4987335;28;20227;-74
2022/09/07 12:30:28;;;;;;;8.43;7.65;;;;;;;;;;5002900;28;20224;-75
2022/09/07 12:32:54;;;;;;;7.43;6.78;;;;;;;;;;5031531;28;20239;-75
2022/09/07 12:35:40;;;;;;;7.32;6.72;;;;;;;;;;5019351;28;20215;-73
2022/09/07 12:38:18;;;;;;;7.47;6.88;;;;;;;;;;5012559;28;20337;-73
2022/09/07 12:40:56;;;;;;;6.60;6.10;;;;;;;;;;5018777;28;20230;-75
2022/09/07 12:43:22;;;;;;;6.25;5.75;;;;;;;;;;5015630;28;20226;-74
2022/09/07 12:45:48;;;;;;;6.82;6.15;;;;;;;;;;5035345;28;20610;-74
2022/09/07 12:48:16;;;;;;;6.57;6.07;;;;;;;;;;5025218;28;20248;-74
2022/09/07 12:51:06;;;;;;;6.57;5.95;;;;;;;;;;5021337;28;20617;-74
2022/09/07 12:53:32;;;;;;;5.80;5.30;;;;;;;;;;5003579;28;20216;-74
2022/09/07 12:56:19;;;;;;;6.30;5.70;;;;;;;;;;5022671;28;20220;-74
2022/09/07 12:59:15;;;;;;;5.70;5.30;;;;;;;;;;5006307;28;20282;-73
2022/09/07 13:02:16;;;;;;;6.07;5.57;;;;;;;;;;5012808;28;20763;-72
2022/09/07 13:05:06;;;;;;;4.80;4.40;;;;;;;;;;5002993;28;20231;-74
2022/09/07 13:08:02;;;;;;;5.40;4.60;;;;;;;;;;4998231;28;20760;-74
2022/09/07 13:10:34;;;;;;;4.47;4.07;;;;;;;;;;5016951;28;20223;-72
2022/09/07 13:13:05;;;;;;;3.85;3.55;;;;;;;;;;5023376;28;20261;-71
2022/09/07 13:15:39;;;;;;;3.85;3.55;;;;;;;;;;4983131;28;20228;-72
2022/09/07 13:18:14;;;;;;;4.10;3.80;;;;;;;;;;5001799;28;20327;-72
2022/09/07 13:20:41;;;;;;;3.55;3.25;;;;;;;;;;5005153;28;20215;-72
2022/09/07 13:23:17;;;;;;;3.30;3.10;;;;;;;;;;4997972;28;20289;-71
2022/09/07 13:25:47;;;;;;;6.40;4.20;;;;;;;;;;5003693;28;20227;-72
2022/09/07 13:28:15;;;;;;;3.60;3.40;;;;;;;;;;5003093;28;20338;-72
2022/09/07 13:30:47;;;;;;;4.65;4.25;;;;;;;;;;5038233;28;20251;-73
2022/09/07 13:33:23;;;;;;;3.50;3.20;;;;;;;;;;5006579;28;20219;-73
2022/09/07 13:36:04;;;;;;;4.03;3.72;;;;;;;;;;5038187;28;20226;-73
2022/09/07 13:38:31;;;;;;;3.95;3.33;;;;;;;;;;5000036;28;20787;-73
2022/09/07 13:41:11;;;;;;;3.78;3.47;;;;;;;;;;5021782;28;20247;-74
2022/09/07 13:43:37;;;;;;;4.68;4.28;;;;;;;;;;4990564;28;20224;-72
2022/09/07 13:46:10;;;;;;;3.10;2.90;;;;;;;;;;5020948;28;20302;-72
2022/09/07 13:48:37;;;;;;;2.78;2.58;;;;;;;;;;4991251;28;20254;-72
2022/09/07 13:51:23;;;;;;;2.83;2.63;;;;;;;;;;4987547;28;20219;-72
2022/09/07 13:53:56;;;;;;;3.00;2.80;;;;;;;;;;5023736;28;20220;-72
2022/09/07 13:56:27;;;;;;;3.22;3.03;;;;;;;;;;5023991;28;20754;-74
2022/09/07 13:58:53;;;;;;;3.95;3.53;;;;;;;;;;5035401;28;20231;-73
2022/09/07 14:01:20;;;;;;;3.20;2.90;;;;;;;;;;5014774;28;20212;-73
2022/09/07 14:03:58;;;;;;;3.78;3.33;;;;;;;;;;4987462;28;20216;-73
2022/09/07 14:06:30;;;;;;;3.55;3.25;;;;;;;;;;5035306;28;20784;-73
2022/09/07 14:09:05;;;;;;;5.05;3.70;;;;;;;;;;5019922;28;20244;-72
2022/09/07 14:11:46;;;;;;;3.30;3.10;;;;;;;;;;5020159;28;20306;-73
2022/09/07 14:14:18;;;;;;;3.40;3.10;;;;;;;;;;5004326;28;20606;-72
2022/09/07 14:17:00;;;;;;;3.85;3.53;;;;;;;;;;5026188;28;20236;-72
2022/09/07 14:19:38;;;;;;;3.85;3.55;;;;;;;;;;5037385;28;20714;-73
2022/09/07 14:22:15;;;;;;;3.80;3.50;;;;;;;;;;5002596;28;20226;-72
2022/09/07 14:24:48;;;;;;;4.10;3.80;;;;;;;;;;5025096;28;20734;-72
2022/09/07 14:27:23;;;;;;;4.05;3.75;;;;;;;;;;5035105;28;20296;-73
2022/09/07 14:29:49;;;;;;;4.03;3.72;;;;;;;;;;5019879;28;20219;-72
2022/09/07 14:32:18;;;;;;;4.18;3.60;;;;;;;;;;5007186;28;20219;-73
2022/09/07 14:34:44;;;;;;;3.67;3.38;;;;;;;;;;5002889;28;20220;-72
2022/09/07 14:37:16;;;;;;;4.13;3.83;;;;;;;;;;5022271;28;20228;-71
2022/09/07 14:39:51;;;;;;;3.65;3.35;;;;;;;;;;5021185;28;20224;-72
2022/09/07 14:42:21;;;;;;;4.60;3.60;;;;;;;;;;5009048;28;20306;-73
2022/09/07 14:44:46;;;;;;;4.35;3.75;;;;;;;;;;5008160;28;20232;-72
2022/09/07 14:47:20;;;;;;;3.67;3.47;;;;;;;;;;5002066;28;20242;-73
2022/09/07 14:49:52;;;;;;;3.92;3.55;;;;;;;;;;5011436;28;20216;-72
2022/09/07 14:52:32;;;;;;;3.78;3.42;;;;;;;;;;5019908;28;20225;-72
2022/09/07 14:54:57;;;;;;;4.20;3.70;;;;;;;;;;5016093;28;20227;-73
2022/09/07 14:57:29;;;;;;;3.63;3.33;;;;;;;;;;5005348;28;20713;-74
2022/09/07 14:59:55;;;;;;;3.80;3.50;;;;;;;;;;5012681;28;20236;-71
2022/09/07 15:02:32;;;;;;;3.72;3.42;;;;;;;;;;5003055;28;20247;-72
2022/09/07 15:05:13;;;;;;;4.22;3.38;;;;;;;;;;5021520;28;20228;-72
2022/09/07 15:07:43;;;;;;;3.88;3.55;;;;;;;;;;5020879;28;20262;-72